sensor_id;sensor_type;location;lat;lon;timestamp;pressure;altitude;pressure_sealevel;temperature;humidity
4705;BME280;2366;51.332;6.610;2023-05-19T00:01:21;102392.28;;;14.58;48.18
4705;BME280;2366;51.332;6.610;2023-05-19T00:03:53;102389.84;;;14.54;48.07
4705;BME280;2366;51.332;6.610;2023-05-19T00:06:28;102391.66;;;14.53;48.23
4705;BME280;2366;51.332;6.610;2023-05-19T00:09:01;102396.09;;;14.53;48.38
4705;BME280;2366;51.332;6.610;2023-05-19T00:11:27;102396.28;;;14.50;48.61
4705;BME280;2366;51.332;6.610;2023-05-19T00:13:54;102394.69;;;14.46;48.63
4705;BME280;2366;51.332;6.610;2023-05-19T00:16:21;102402.09;;;14.41;48.80
4705;BME280;2366;51.332;6.610;2023-05-19T00:18:47;102401.91;;;14.44;48.88
4705;BME280;2366;51.332;6.610;2023-05-19T00:21:13;102400.34;;;14.39;48.91
4705;BME280;2366;51.332;6.610;2023-05-19T00:23:39;102393.59;;;14.32;49.16
4705;BME280;2366;51.332;6.610;2023-05-19T00:26:04;102390.44;;;14.24;49.01
4705;BME280;2366;51.332;6.610;2023-05-19T00:28:30;102387.31;;;14.16;49.58
4705;BME280;2366;51.332;6.610;2023-05-19T00:30:55;102394.38;;;14.17;49.77
4705;BME280;2366;51.332;6.610;2023-05-19T00:33:20;102389.34;;;14.11;49.99
4705;BME280;2366;51.332;6.610;2023-05-19T00:35:46;102386.06;;;14.06;50.10
4705;BME280;2366;51.332;6.610;2023-05-19T00:38:11;102396.84;;;14.03;50.00
4705;BME280;2366;51.332;6.610;2023-05-19T00:40:37;102392.78;;;13.95;50.26
4705;BME280;2366;51.332;6.610;2023-05-19T00:43:02;102396.47;;;13.93;50.71
4705;BME280;2366;51.332;6.610;2023-05-19T00:45:29;102392.38;;;13.86;50.52
4705;BME280;2366;51.332;6.610;2023-05-19T00:47:54;102396.03;;;13.83;50.95
4705;BME280;2366;51.332;6.610;2023-05-19T00:50:20;102394.38;;;13.81;50.97
4705;BME280;2366;51.332;6.610;2023-05-19T00:52:45;102391.03;;;13.77;51.21
4705;BME280;2366;51.332;6.610;2023-05-19T00:55:11;102391.16;;;13.74;51.12
4705;BME280;2366;51.332;6.610;2023-05-19T00:57:38;102387.75;;;13.70;51.31
4705;BME280;2366;51.332;6.610;2023-05-19T01:00:04;102393.31;;;13.66;51.46
4705;BME280;2366;51.332;6.610;2023-05-19T01:02:30;102389.16;;;13.60;51.97
4705;BME280;2366;51.332;6.610;2023-05-19T01:04:56;102385.78;;;13.56;51.98
4705;BME280;2366;51.332;6.610;2023-05-19T01:07:22;102393.91;;;13.53;52.22
4705;BME280;2366;51.332;6.610;2023-05-19T01:09:48;102387.84;;;13.50;52.04
4705;BME280;2366;51.332;6.610;2023-05-19T01:12:14;102388.09;;;13.45;52.28
4705;BME280;2366;51.332;6.610;2023-05-19T01:14:40;102379.50;;;13.39;52.46
4705;BME280;2366;51.332;6.610;2023-05-19T01:17:13;102378.34;;;13.25;53.37
4705;BME280;2366;51.332;6.610;2023-05-19T01:20:19;102384.06;;;13.16;53.86
4705;BME280;2366;51.332;6.610;2023-05-19T01:30:58;102372.47;;;12.98;54.69
4705;BME280;2366;51.332;6.610;2023-05-19T01:33:25;102369.94;;;12.95;54.50
4705;BME280;2366;51.332;6.610;2023-05-19T01:35:54;102373.41;;;12.97;54.34
4705;BME280;2366;51.332;6.610;2023-05-19T01:38:20;102380.72;;;12.92;54.60
4705;BME280;2366;51.332;6.610;2023-05-19T01:40:47;102375.66;;;12.86;55.05
4705;BME280;2366;51.332;6.610;2023-05-19T01:43:19;102380.22;;;12.84;55.45
4705;BME280;2366;51.332;6.610;2023-05-19T01:45:45;102388.22;;;12.84;55.43
4705;BME280;2366;51.332;6.610;2023-05-19T01:48:11;102379.53;;;12.79;55.54
4705;BME280;2366;51.332;6.610;2023-05-19T01:50:38;102387.69;;;12.76;55.57
4705;BME280;2366;51.332;6.610;2023-05-19T01:53:04;102382.56;;;12.71;56.11
4705;BME280;2366;51.332;6.610;2023-05-19T01:55:29;102382.63;;;12.69;56.18
4705;BME280;2366;51.332;6.610;2023-05-19T01:58:06;102378.22;;;12.68;55.89
4705;BME280;2366;51.332;6.610;2023-05-19T02:01:28;102374.84;;;12.65;56.35
4705;BME280;2366;51.332;6.610;2023-05-19T02:03:43;102387.41;;;12.61;56.41
4705;BME280;2366;51.332;6.610;2023-05-19T02:09:18;102381.44;;;12.56;56.71
4705;BME280;2366;51.332;6.610;2023-05-19T02:12:27;102386.66;;;12.58;56.55
4705;BME280;2366;51.332;6.610;2023-05-19T02:15:09;102384.09;;;12.56;56.60
4705;BME280;2366;51.332;6.610;2023-05-19T02:17:38;102380.88;;;12.48;56.36
4705;BME280;2366;51.332;6.610;2023-05-19T02:20:07;102381.03;;;12.45;56.97
4705;BME280;2366;51.332;6.610;2023-05-19T02:22:33;102382.91;;;12.43;57.03
4705;BME280;2366;51.332;6.610;2023-05-19T02:24:59;102382.16;;;12.39;56.80
4705;BME280;2366;51.332;6.610;2023-05-19T02:27:25;102381.41;;;12.36;57.41
4705;BME280;2366;51.332;6.610;2023-05-19T02:29:51;102375.38;;;12.32;57.30
4705;BME280;2366;51.332;6.610;2023-05-19T02:32:16;102379.81;;;12.31;57.46
4705;BME280;2366;51.332;6.610;2023-05-19T02:34:42;102380.69;;;12.32;57.66
4705;BME280;2366;51.332;6.610;2023-05-19T02:37:11;102376.09;;;12.36;57.26
4705;BME280;2366;51.332;6.610;2023-05-19T02:39:37;102372.38;;;12.40;57.23
4705;BME280;2366;51.332;6.610;2023-05-19T02:42:03;102361.63;;;12.43;57.13
4705;BME280;2366;51.332;6.610;2023-05-19T02:44:29;102358.88;;;12.44;56.90
4705;BME280;2366;51.332;6.610;2023-05-19T02:46:54;102364.88;;;12.49;56.51
4705;BME280;2366;51.332;6.610;2023-05-19T02:49:19;102361.06;;;12.55;56.38
4705;BME280;2366;51.332;6.610;2023-05-19T02:51:45;102365.53;;;12.54;56.21
4705;BME280;2366;51.332;6.610;2023-05-19T02:54:10;102359.19;;;12.57;56.16
4705;BME280;2366;51.332;6.610;2023-05-19T02:56:35;102359.19;;;12.57;56.11
4705;BME280;2366;51.332;6.610;2023-05-19T02:59:01;102359.19;;;12.57;56.28
4705;BME280;2366;51.332;6.610;2023-05-19T03:01:26;102360.94;;;12.58;56.18
4705;BME280;2366;51.332;6.610;2023-05-19T03:03:51;102368.19;;;12.54;56.30
4705;BME280;2366;51.332;6.610;2023-05-19T03:06:17;102368.31;;;12.51;56.26
4705;BME280;2366;51.332;6.610;2023-05-19T03:08:42;102368.38;;;12.50;56.19
4705;BME280;2366;51.332;6.610;2023-05-19T03:11:08;102366.63;;;12.49;56.18
4705;BME280;2366;51.332;6.610;2023-05-19T03:13:33;102364.19;;;12.44;56.75
4705;BME280;2366;51.332;6.610;2023-05-19T03:15:59;102368.78;;;12.41;56.83
4705;BME280;2366;51.332;6.610;2023-05-19T03:18:26;102377.69;;;12.40;56.82
4705;BME280;2366;51.332;6.610;2023-05-19T03:20:52;102379.63;;;12.36;56.90
4705;BME280;2366;51.332;6.610;2023-05-19T03:23:21;102373.63;;;12.31;57.09
4705;BME280;2366;51.332;6.610;2023-05-19T03:25:46;102373.69;;;12.29;57.20
4705;BME280;2366;51.332;6.610;2023-05-19T03:28:12;102373.03;;;12.24;57.31
4705;BME280;2366;51.332;6.610;2023-05-19T03:30:37;102368.66;;;12.23;57.87
4705;BME280;2366;51.332;6.610;2023-05-19T03:33:02;102373.97;;;12.23;57.74
4705;BME280;2366;51.332;6.610;2023-05-19T03:35:29;102371.31;;;12.23;57.65
4705;BME280;2366;51.332;6.610;2023-05-19T03:37:54;102373.16;;;12.21;58.00
4705;BME280;2366;51.332;6.610;2023-05-19T03:40:20;102367.84;;;12.21;58.11
4705;BME280;2366;51.332;6.610;2023-05-19T03:42:45;102367.84;;;12.21;58.15
4705;BME280;2366;51.332;6.610;2023-05-19T03:45:10;102374.88;;;12.22;57.89
4705;BME280;2366;51.332;6.610;2023-05-19T03:47:36;102373.03;;;12.24;58.06
4705;BME280;2366;51.332;6.610;2023-05-19T03:50:01;102374.75;;;12.25;58.31
4705;BME280;2366;51.332;6.610;2023-05-19T03:52:27;102371.03;;;12.29;58.44
4705;BME280;2366;51.332;6.610;2023-05-19T03:54:52;102370.75;;;12.36;58.38
4705;BME280;2366;51.332;6.610;2023-05-19T03:57:17;102368.78;;;12.41;58.18
4705;BME280;2366;51.332;6.610;2023-05-19T03:59:43;102365.94;;;12.45;57.90
4705;BME280;2366;51.332;6.610;2023-05-19T04:02:08;102365.78;;;12.48;57.79
4705;BME280;2366;51.332;6.610;2023-05-19T04:04:34;102377.03;;;12.55;58.03
4705;BME280;2366;51.332;6.610;2023-05-19T04:07:01;102378.56;;;12.61;57.55
4705;BME280;2366;51.332;6.610;2023-05-19T04:09:26;102384.06;;;12.97;57.59
4705;BME280;2366;51.332;6.610;2023-05-19T04:11:52;102383.94;;;13.76;56.56
4705;BME280;2366;51.332;6.610;2023-05-19T04:14:17;102388.56;;;14.26;54.31
4705;BME280;2366;51.332;6.610;2023-05-19T04:16:44;102391.25;;;14.78;52.76
4705;BME280;2366;51.332;6.610;2023-05-19T04:19:09;102385.59;;;15.18;51.16
4705;BME280;2366;51.332;6.610;2023-05-19T04:21:35;102393.00;;;15.29;50.62
4705;BME280;2366;51.332;6.610;2023-05-19T04:24:00;102392.47;;;15.71;49.93
4705;BME280;2366;51.332;6.610;2023-05-19T04:26:26;102387.44;;;16.27;48.19
4705;BME280;2366;51.332;6.610;2023-05-19T04:28:54;102383.38;;;16.36;47.41
4705;BME280;2366;51.332;6.610;2023-05-19T04:31:20;102381.34;;;16.25;46.96
4705;BME280;2366;51.332;6.610;2023-05-19T04:33:46;102390.97;;;15.97;47.36
4705;BME280;2366;51.332;6.610;2023-05-19T04:36:12;102388.09;;;16.61;46.37
4705;BME280;2366;51.332;6.610;2023-05-19T04:38:38;102380.28;;;16.28;46.01
4705;BME280;2366;51.332;6.610;2023-05-19T04:41:04;102384.16;;;15.60;46.99
4705;BME280;2366;51.332;6.610;2023-05-19T04:43:30;102380.63;;;14.94;48.86
4705;BME280;2366;51.332;6.610;2023-05-19T04:45:56;102389.78;;;14.73;49.72
4705;BME280;2366;51.332;6.610;2023-05-19T04:48:22;102384.38;;;15.08;50.01
4705;BME280;2366;51.332;6.610;2023-05-19T04:50:47;102394.78;;;16.54;47.56
4705;BME280;2366;51.332;6.610;2023-05-19T04:53:14;102398.75;;;18.04;44.75
4705;BME280;2366;51.332;6.610;2023-05-19T04:55:39;102393.69;;;19.17;42.28
4705;BME280;2366;51.332;6.610;2023-05-19T04:58:05;102392.53;;;19.70;39.95
4705;BME280;2366;51.332;6.610;2023-05-19T05:00:31;102391.25;;;20.11;39.82
4705;BME280;2366;51.332;6.610;2023-05-19T05:02:56;102384.38;;;20.78;38.21
4705;BME280;2366;51.332;6.610;2023-05-19T05:05:22;102387.06;;;21.34;37.67
4705;BME280;2366;51.332;6.610;2023-05-19T05:07:48;102386.50;;;21.74;36.77
4705;BME280;2366;51.332;6.610;2023-05-19T05:10:14;102396.53;;;22.16;35.87
4705;BME280;2366;51.332;6.610;2023-05-19T05:12:40;102387.72;;;22.25;34.90
4705;BME280;2366;51.332;6.610;2023-05-19T05:15:06;102388.31;;;21.42;35.51
4705;BME280;2366;51.332;6.610;2023-05-19T05:17:33;102390.00;;;21.20;36.64
4705;BME280;2366;51.332;6.610;2023-05-19T05:20:00;102388.53;;;21.50;35.70
4705;BME280;2366;51.332;6.610;2023-05-19T05:22:26;102391.28;;;22.14;34.81
4705;BME280;2366;51.332;6.610;2023-05-19T05:24:52;102386.00;;;22.24;33.79
4705;BME280;2366;51.332;6.610;2023-05-19T05:27:17;102385.59;;;21.64;34.38
4705;BME280;2366;51.332;6.610;2023-05-19T05:29:43;102376.66;;;21.41;34.80
4705;BME280;2366;51.332;6.610;2023-05-19T05:32:08;102377.75;;;20.82;35.55
4705;BME280;2366;51.332;6.610;2023-05-19T05:34:33;102387.81;;;20.09;36.60
4705;BME280;2366;51.332;6.610;2023-05-19T05:37:00;102378.84;;;20.33;37.38
4705;BME280;2366;51.332;6.610;2023-05-19T05:39:25;102373.84;;;20.86;35.87
4705;BME280;2366;51.332;6.610;2023-05-19T05:41:52;102378.50;;;21.52;35.06
4705;BME280;2366;51.332;6.610;2023-05-19T05:44:17;102380.59;;;22.24;34.01
4705;BME280;2366;51.332;6.610;2023-05-19T05:46:43;102380.09;;;22.82;33.19
4705;BME280;2366;51.332;6.610;2023-05-19T05:49:08;102376.16;;;23.17;32.42
4705;BME280;2366;51.332;6.610;2023-05-19T05:51:34;102378.13;;;23.55;31.97
4705;BME280;2366;51.332;6.610;2023-05-19T05:54:00;102382.47;;;23.97;30.88
4705;BME280;2366;51.332;6.610;2023-05-19T05:56:27;102365.03;;;23.61;31.55
4705;BME280;2366;51.332;6.610;2023-05-19T05:58:52;102366.94;;;23.99;30.99
4705;BME280;2366;51.332;6.610;2023-05-19T06:01:18;102365.91;;;24.29;30.73
4705;BME280;2366;51.332;6.610;2023-05-19T06:03:45;102356.16;;;24.46;30.58
4705;BME280;2366;51.332;6.610;2023-05-19T06:06:12;102358.50;;;24.51;30.06
4705;BME280;2366;51.332;6.610;2023-05-19T06:08:37;102364.78;;;24.32;30.33
4705;BME280;2366;51.332;6.610;2023-05-19T06:11:03;102354.41;;;24.74;30.19
4705;BME280;2366;51.332;6.610;2023-05-19T06:13:37;102351.97;;;25.09;29.26
4705;BME280;2366;51.332;6.610;2023-05-19T06:16:03;102354.38;;;25.49;28.98
4705;BME280;2366;51.332;6.610;2023-05-19T06:18:28;102352.09;;;25.90;28.90
4705;BME280;2366;51.332;6.610;2023-05-19T06:20:54;102348.06;;;25.94;28.24
4705;BME280;2366;51.332;6.610;2023-05-19T06:23:19;102355.59;;;26.00;28.57
4705;BME280;2366;51.332;6.610;2023-05-19T06:25:45;102353.28;;;26.32;27.67
4705;BME280;2366;51.332;6.610;2023-05-19T06:28:10;102361.06;;;26.09;27.98
4705;BME280;2366;51.332;6.610;2023-05-19T06:30:35;102354.34;;;26.39;27.82
4705;BME280;2366;51.332;6.610;2023-05-19T06:33:01;102359.06;;;26.81;26.72
4705;BME280;2366;51.332;6.610;2023-05-19T06:35:30;102367.13;;;27.33;26.55
4705;BME280;2366;51.332;6.610;2023-05-19T06:37:56;102365.22;;;28.01;26.02
4705;BME280;2366;51.332;6.610;2023-05-19T06:40:21;102359.22;;;28.38;24.84
4705;BME280;2366;51.332;6.610;2023-05-19T06:42:47;102361.13;;;28.54;24.85
4705;BME280;2366;51.332;6.610;2023-05-19T06:45:13;102364.47;;;28.73;25.22
4705;BME280;2366;51.332;6.610;2023-05-19T06:47:38;102358.50;;;28.69;24.29
4705;BME280;2366;51.332;6.610;2023-05-19T06:50:08;102354.63;;;27.81;25.61
4705;BME280;2366;51.332;6.610;2023-05-19T06:52:34;102354.06;;;27.53;25.30
4705;BME280;2366;51.332;6.610;2023-05-19T06:54:59;102358.59;;;26.59;26.43
4705;BME280;2366;51.332;6.610;2023-05-19T06:57:25;102357.31;;;25.74;27.25
4705;BME280;2366;51.332;6.610;2023-05-19T06:59:50;102362.75;;;25.74;27.13
4705;BME280;2366;51.332;6.610;2023-05-19T07:02:15;102356.72;;;25.80;27.79
4705;BME280;2366;51.332;6.610;2023-05-19T07:04:41;102356.03;;;26.14;27.58
4705;BME280;2366;51.332;6.610;2023-05-19T07:07:07;102356.41;;;26.19;27.00
4705;BME280;2366;51.332;6.610;2023-05-19T07:09:32;102363.78;;;26.53;26.50
4705;BME280;2366;51.332;6.610;2023-05-19T07:11:58;102356.94;;;27.52;25.33
4705;BME280;2366;51.332;6.610;2023-05-19T07:14:23;102350.06;;;27.98;24.40
4705;BME280;2366;51.332;6.610;2023-05-19T07:16:49;102353.97;;;28.37;24.66
4705;BME280;2366;51.332;6.610;2023-05-19T07:19:14;102355.16;;;29.06;23.98
4705;BME280;2366;51.332;6.610;2023-05-19T07:21:39;102342.88;;;29.42;23.47
4705;BME280;2366;51.332;6.610;2023-05-19T07:24:06;102350.53;;;29.46;23.37
4705;BME280;2366;51.332;6.610;2023-05-19T07:26:31;102352.00;;;29.88;22.57
4705;BME280;2366;51.332;6.610;2023-05-19T07:28:57;102339.34;;;29.87;22.84
4705;BME280;2366;51.332;6.610;2023-05-19T07:31:22;102359.53;;;30.62;21.97
4705;BME280;2366;51.332;6.610;2023-05-19T07:33:48;102348.94;;;30.74;21.58
4705;BME280;2366;51.332;6.610;2023-05-19T07:36:13;102342.22;;;30.47;21.86
4705;BME280;2366;51.332;6.610;2023-05-19T07:38:38;102346.97;;;30.83;21.96
4705;BME280;2366;51.332;6.610;2023-05-19T07:41:04;102347.13;;;30.66;21.52
4705;BME280;2366;51.332;6.610;2023-05-19T07:43:29;102341.59;;;30.75;21.56
4705;BME280;2366;51.332;6.610;2023-05-19T07:45:55;102338.75;;;30.83;21.41
4705;BME280;2366;51.332;6.610;2023-05-19T07:48:21;102336.13;;;31.04;21.06
4705;BME280;2366;51.332;6.610;2023-05-19T07:50:49;102329.69;;;30.38;21.77
4705;BME280;2366;51.332;6.610;2023-05-19T07:53:15;102341.13;;;30.56;21.37
4705;BME280;2366;51.332;6.610;2023-05-19T07:55:40;102332.47;;;30.97;21.83
4705;BME280;2366;51.332;6.610;2023-05-19T07:58:06;102337.84;;;31.63;20.74
4705;BME280;2366;51.332;6.610;2023-05-19T08:00:31;102327.31;;;32.31;20.49
4705;BME280;2366;51.332;6.610;2023-05-19T08:02:57;102335.63;;;32.17;19.72
4705;BME280;2366;51.332;6.610;2023-05-19T08:05:22;102332.84;;;32.38;19.67
4705;BME280;2366;51.332;6.610;2023-05-19T08:07:49;102331.63;;;32.82;19.65
4705;BME280;2366;51.332;6.610;2023-05-19T08:10:15;102331.41;;;31.92;19.52
4705;BME280;2366;51.332;6.610;2023-05-19T08:12:40;102320.44;;;32.14;19.82
4705;BME280;2366;51.332;6.610;2023-05-19T08:15:06;102326.31;;;33.22;19.17
4705;BME280;2366;51.332;6.610;2023-05-19T08:17:32;102327.19;;;32.81;18.24
4705;BME280;2366;51.332;6.610;2023-05-19T08:19:57;102314.25;;;32.68;18.95
4705;BME280;2366;51.332;6.610;2023-05-19T08:22:22;102315.63;;;33.54;18.28
4705;BME280;2366;51.332;6.610;2023-05-19T08:24:48;102311.66;;;33.70;17.94
4705;BME280;2366;51.332;6.610;2023-05-19T08:27:16;102314.53;;;32.80;18.30
4705;BME280;2366;51.332;6.610;2023-05-19T08:29:42;102308.84;;;32.82;18.08
4705;BME280;2366;51.332;6.610;2023-05-19T08:32:07;102311.16;;;32.50;18.18
4705;BME280;2366;51.332;6.610;2023-05-19T08:34:33;102305.41;;;32.38;19.06
4705;BME280;2366;51.332;6.610;2023-05-19T08:36:58;102314.28;;;32.75;18.04
4705;BME280;2366;51.332;6.610;2023-05-19T08:39:24;102303.78;;;32.92;17.88
4705;BME280;2366;51.332;6.610;2023-05-19T08:41:54;102304.44;;;33.01;17.75
4705;BME280;2366;51.332;6.610;2023-05-19T08:44:20;102310.16;;;33.61;17.62
4705;BME280;2366;51.332;6.610;2023-05-19T08:46:49;102310.81;;;33.01;17.22
4705;BME280;2366;51.332;6.610;2023-05-19T08:49:22;102291.28;;;32.76;17.65
4705;BME280;2366;51.332;6.610;2023-05-19T08:55:00;102295.84;;;31.56;17.38
4705;BME280;2366;51.332;6.610;2023-05-19T08:57:28;102296.94;;;31.62;17.81
4705;BME280;2366;51.332;6.610;2023-05-19T08:59:55;102286.41;;;32.08;17.49
4705;BME280;2366;51.332;6.610;2023-05-19T09:02:21;102291.00;;;32.29;17.75
4705;BME280;2366;51.332;6.610;2023-05-19T09:04:47;102271.22;;;32.76;17.12
4705;BME280;2366;51.332;6.610;2023-05-19T09:07:13;102282.91;;;32.21;17.51
4705;BME280;2366;51.332;6.610;2023-05-19T09:09:40;102283.22;;;32.40;17.38
4705;BME280;2366;51.332;6.610;2023-05-19T09:12:10;102274.31;;;32.31;17.27
4705;BME280;2366;51.332;6.610;2023-05-19T09:14:36;102284.00;;;31.99;17.80
4705;BME280;2366;51.332;6.610;2023-05-19T09:17:02;102267.28;;;31.93;17.58
4705;BME280;2366;51.332;6.610;2023-05-19T09:19:27;102270.63;;;31.89;17.94
4705;BME280;2366;51.332;6.610;2023-05-19T09:21:58;102273.31;;;31.82;17.76
4705;BME280;2366;51.332;6.610;2023-05-19T09:24:25;102272.06;;;31.20;17.61
4705;BME280;2366;51.332;6.610;2023-05-19T09:26:54;102265.25;;;30.80;18.57
4705;BME280;2366;51.332;6.610;2023-05-19T09:29:19;102265.94;;;31.40;17.88
4705;BME280;2366;51.332;6.610;2023-05-19T09:31:48;102256.06;;;31.60;18.71
4705;BME280;2366;51.332;6.610;2023-05-19T09:34:17;102251.00;;;32.13;18.08
4705;BME280;2366;51.332;6.610;2023-05-19T09:36:43;102258.63;;;32.18;17.77
4705;BME280;2366;51.332;6.610;2023-05-19T09:39:12;102246.28;;;32.36;17.63
4705;BME280;2366;51.332;6.610;2023-05-19T09:41:38;102251.56;;;32.02;17.78
4705;BME280;2366;51.332;6.610;2023-05-19T09:44:04;102245.63;;;32.33;17.24
4705;BME280;2366;51.332;6.610;2023-05-19T09:46:31;102249.47;;;32.04;17.43
4705;BME280;2366;51.332;6.610;2023-05-19T09:48:57;102233.09;;;31.03;18.68
4705;BME280;2366;51.332;6.610;2023-05-19T09:51:23;102245.03;;;31.54;18.18
4705;BME280;2366;51.332;6.610;2023-05-19T09:53:49;102227.41;;;32.19;17.82
4705;BME280;2366;51.332;6.610;2023-05-19T09:56:14;102243.94;;;31.98;17.81
4705;BME280;2366;51.332;6.610;2023-05-19T09:58:43;102242.31;;;30.66;18.41
4705;BME280;2366;51.332;6.610;2023-05-19T10:01:09;102229.88;;;30.19;18.64
4705;BME280;2366;51.332;6.610;2023-05-19T10:03:35;102232.22;;;30.66;18.64
4705;BME280;2366;51.332;6.610;2023-05-19T10:06:03;102228.13;;;31.28;18.61
4705;BME280;2366;51.332;6.610;2023-05-19T10:08:30;102235.69;;;31.26;18.50
4705;BME280;2366;51.332;6.610;2023-05-19T10:10:56;102225.31;;;30.34;18.62
4705;BME280;2366;51.332;6.610;2023-05-19T10:13:22;102222.66;;;28.64;20.71
4705;BME280;2366;51.332;6.610;2023-05-19T10:15:48;102223.84;;;26.31;22.84
4705;BME280;2366;51.332;6.610;2023-05-19T10:18:16;102235.00;;;25.57;23.45
4705;BME280;2366;51.332;6.610;2023-05-19T10:20:42;102227.41;;;26.05;23.29
4705;BME280;2366;51.332;6.610;2023-05-19T10:23:08;102228.47;;;25.50;24.00
4705;BME280;2366;51.332;6.610;2023-05-19T10:25:34;102223.50;;;25.10;23.92
4705;BME280;2366;51.332;6.610;2023-05-19T10:28:21;102218.78;;;24.84;24.69
4705;BME280;2366;51.332;6.610;2023-05-19T10:30:52;102226.34;;;24.63;25.24
4705;BME280;2366;51.332;6.610;2023-05-19T10:33:20;102222.06;;;24.60;24.78
4705;BME280;2366;51.332;6.610;2023-05-19T10:36:14;102225.88;;;24.30;25.35
4705;BME280;2366;51.332;6.610;2023-05-19T10:38:57;102217.41;;;24.05;26.04
4705;BME280;2366;51.332;6.610;2023-05-19T10:41:40;102212.31;;;24.30;25.68
4705;BME280;2366;51.332;6.610;2023-05-19T10:44:39;102215.53;;;24.43;25.07
4705;BME280;2366;51.332;6.610;2023-05-19T10:47:07;102225.03;;;24.29;25.00
4705;BME280;2366;51.332;6.610;2023-05-19T10:49:36;102201.44;;;24.02;25.33
4705;BME280;2366;51.332;6.610;2023-05-19T10:52:02;102219.81;;;24.08;26.15
4705;BME280;2366;51.332;6.610;2023-05-19T10:54:43;102199.56;;;24.03;25.57
4705;BME280;2366;51.332;6.610;2023-05-19T10:57:17;102206.56;;;23.95;26.09
4705;BME280;2366;51.332;6.610;2023-05-19T10:59:44;102212.97;;;24.04;25.26
4705;BME280;2366;51.332;6.610;2023-05-19T11:02:10;102209.44;;;23.74;25.82
4705;BME280;2366;51.332;6.610;2023-05-19T11:05:06;102206.63;;;23.66;25.77
4705;BME280;2366;51.332;6.610;2023-05-19T11:07:33;102202.84;;;24.06;26.39
4705;BME280;2366;51.332;6.610;2023-05-19T11:10:04;102203.69;;;24.16;25.56
4705;BME280;2366;51.332;6.610;2023-05-19T11:12:39;102198.25;;;24.16;25.74
4705;BME280;2366;51.332;6.610;2023-05-19T11:15:06;102206.13;;;24.00;25.32
4705;BME280;2366;51.332;6.610;2023-05-19T11:17:34;102200.00;;;23.98;25.32
4705;BME280;2366;51.332;6.610;2023-05-19T11:20:00;102200.31;;;23.95;24.35
4705;BME280;2366;51.332;6.610;2023-05-19T11:22:26;102195.03;;;23.74;25.45
4705;BME280;2366;51.332;6.610;2023-05-19T11:24:55;102195.19;;;23.72;25.78
4705;BME280;2366;51.332;6.610;2023-05-19T11:29:48;102190.94;;;23.50;26.64
4705;BME280;2366;51.332;6.610;2023-05-19T11:32:14;102200.34;;;23.56;27.17
4705;BME280;2366;51.332;6.610;2023-05-19T11:34:40;102188.69;;;23.55;26.91
4705;BME280;2366;51.332;6.610;2023-05-19T11:37:06;102191.81;;;23.41;26.78
4705;BME280;2366;51.332;6.610;2023-05-19T11:39:31;102203.47;;;23.61;26.86
4705;BME280;2366;51.332;6.610;2023-05-19T11:41:57;102182.66;;;23.71;27.00
4705;BME280;2366;51.332;6.610;2023-05-19T11:44:23;102189.81;;;23.82;26.51
4705;BME280;2366;51.332;6.610;2023-05-19T11:49:18;102193.09;;;23.47;26.83
4705;BME280;2366;51.332;6.610;2023-05-19T11:51:43;102185.13;;;23.45;26.59
4705;BME280;2366;51.332;6.610;2023-05-19T11:54:09;102184.56;;;23.32;26.54
4705;BME280;2366;51.332;6.610;2023-05-19T11:56:39;102167.03;;;23.36;27.23
4705;BME280;2366;51.332;6.610;2023-05-19T11:59:05;102180.56;;;23.36;26.80
4705;BME280;2366;51.332;6.610;2023-05-19T12:01:32;102176.56;;;23.30;26.23
4705;BME280;2366;51.332;6.610;2023-05-19T12:03:57;102163.03;;;23.30;26.91
4705;BME280;2366;51.332;6.610;2023-05-19T12:06:24;102155.94;;;23.49;26.28
4705;BME280;2366;51.332;6.610;2023-05-19T12:08:51;102153.31;;;23.57;26.75
4705;BME280;2366;51.332;6.610;2023-05-19T12:11:17;102159.16;;;23.72;25.68
4705;BME280;2366;51.332;6.610;2023-05-19T12:13:43;102153.50;;;23.46;25.30
4705;BME280;2366;51.332;6.610;2023-05-19T12:16:08;102152.63;;;23.35;25.81
4705;BME280;2366;51.332;6.610;2023-05-19T12:18:37;102152.91;;;23.62;25.81
4705;BME280;2366;51.332;6.610;2023-05-19T12:21:03;102150.75;;;23.75;25.77
4705;BME280;2366;51.332;6.610;2023-05-19T12:23:29;102157.88;;;23.76;24.92
4705;BME280;2366;51.332;6.610;2023-05-19T12:25:59;102155.47;;;23.63;25.49
4705;BME280;2366;51.332;6.610;2023-05-19T12:28:25;102151.31;;;23.59;25.88
4705;BME280;2366;51.332;6.610;2023-05-19T12:30:51;102153.59;;;23.83;25.79
4705;BME280;2366;51.332;6.610;2023-05-19T12:33:17;102148.44;;;23.90;25.45
4705;BME280;2366;51.332;6.610;2023-05-19T12:35:44;102151.84;;;23.92;25.70
4705;BME280;2366;51.332;6.610;2023-05-19T12:38:10;102152.75;;;23.83;26.13
4705;BME280;2366;51.332;6.610;2023-05-19T12:40:35;102144.34;;;23.86;26.12
4705;BME280;2366;51.332;6.610;2023-05-19T12:43:02;102150.16;;;23.81;26.19
4705;BME280;2366;51.332;6.610;2023-05-19T12:45:35;102123.94;;;23.72;25.40
4705;BME280;2366;51.332;6.610;2023-05-19T12:48:10;102130.22;;;23.72;25.93
4705;BME280;2366;51.332;6.610;2023-05-19T12:50:36;102128.22;;;23.74;26.53
4705;BME280;2366;51.332;6.610;2023-05-19T12:53:02;102118.00;;;23.68;25.98
4705;BME280;2366;51.332;6.610;2023-05-19T12:55:28;102120.72;;;23.68;26.25
4705;BME280;2366;51.332;6.610;2023-05-19T12:57:53;102109.41;;;23.83;26.56
4705;BME280;2366;51.332;6.610;2023-05-19T13:00:22;102115.22;;;23.97;26.46
4705;BME280;2366;51.332;6.610;2023-05-19T13:03:01;102116.25;;;23.87;26.48
4705;BME280;2366;51.332;6.610;2023-05-19T13:05:31;102117.28;;;24.13;26.29
4705;BME280;2366;51.332;6.610;2023-05-19T13:08:05;102118.13;;;23.86;26.08
4705;BME280;2366;51.332;6.610;2023-05-19T13:10:33;102119.13;;;23.66;26.49
4705;BME280;2366;51.332;6.610;2023-05-19T13:12:58;102121.84;;;23.75;26.46
4705;BME280;2366;51.332;6.610;2023-05-19T13:15:26;102112.25;;;23.91;26.11
4705;BME280;2366;51.332;6.610;2023-05-19T13:17:52;102111.84;;;23.86;26.21
4705;BME280;2366;51.332;6.610;2023-05-19T13:20:19;102100.59;;;23.81;26.60
4705;BME280;2366;51.332;6.610;2023-05-19T13:22:46;102112.97;;;23.83;26.36
4705;BME280;2366;51.332;6.610;2023-05-19T13:25:11;102111.16;;;23.84;26.74
4705;BME280;2366;51.332;6.610;2023-05-19T13:27:37;102110.75;;;24.06;26.88
4705;BME280;2366;51.332;6.610;2023-05-19T13:30:03;102103.19;;;24.10;26.04